Mccrews — WDF6271 — position and weather

sailwx.info

Track history (hours):
 
Tides and Currents Weather Stations Pressure Air Temp Water Temp Dewpoint Dewpoint Depression Visibility Wind Speed Wind Dir Waves Ship Positions

Mccrews

Owner: McAllister Towing & Transportation Company Inc., Staten Island, NY. More information available from US FCC via Universal Licensing System and Coast Guard Vessel Documentation Center.

Last reported at 2018-May-21 14:55 UTC. Time now 2018-May-21 14:59 UTC.
Position N 39°53' W 075°11'.

Length 13 m; draft 2 m.

Type: Pilot. MMSI: 367472490.

Date/timePositionNaut miles runAvg speedWind from/ knotsBaromVisibWave heightAir tempDewpointWater temp
2018-May-21 14:55N 39°53' W 075°11'2 3.8
2018-May-21 14:30N 39°52' W 075°13'2 0.0
2018-May-19 17:01N 39°53' W 075°11'0 0.0
2018-May-19 17:01N 39°53' W 075°11'2 4.3
2018-May-19 16:31N 39°52' W 075°13'2 1.2
2018-May-19 14:38N 39°53' W 075°11'0 3.3
2018-May-19 14:30N 39°53' W 075°11'2 3.1
2018-May-19 14:00N 39°52' W 075°13'2 3.9
2018-May-19 13:30N 39°53' W 075°11'0 0.0
2018-May-18 17:43N 39°53' W 075°11'1 2.6
2018-May-18 17:30N 39°53' W 075°11'1 0.0
2018-May-17 20:12N 39°53' W 075°11'0 2.0
2018-May-17 20:00N 39°53' W 075°10'510.6
2018-May-17 19:30N 39°58' W 075°07'3 5.6
2018-May-17 19:00N 39°55' W 075°08'3 6.7
2018-May-17 18:30N 39°53' W 075°11'2 4.1
2018-May-17 18:01N 39°55' W 075°13'2 3.5
2018-May-17 17:30N 39°56' W 075°12'2 4.6
2018-May-17 17:00N 39°54' W 075°13'2 4.5
2018-May-17 16:30N 39°52' W 075°13'2 3.7
2018-May-17 16:00N 39°54' W 075°12'3 5.6
2018-May-17 15:30N 39°56' W 075°12'0 0.2
2018-May-17 15:00N 39°56' W 075°12'0 0.0
2018-May-17 14:30N 39°56' W 075°12'0 0.0
2018-May-17 14:00N 39°56' W 075°12'1 1.4
2018-May-17 13:30N 39°56' W 075°13'1 3.0
2018-May-17 13:00N 39°54' W 075°13'2 3.9
2018-May-17 12:30N 39°53' W 075°11'0 0.2
2018-May-17 12:00N 39°53' W 075°11'0 0.0
2018-May-16 17:23N 39°53' W 075°11'2 5.3
2018-May-16 17:00N 39°52' W 075°13'0 0.6
2018-May-16 16:30N 39°52' W 075°13'2 1.0
2018-May-16 14:49N 39°53' W 075°11'0 0.1
2018-May-16 14:31N 39°53' W 075°11'0 0.0
2018-May-15 19:48N 39°53' W 075°11'3 9.9
2018-May-15 19:30N 39°52' W 075°14'713.8
2018-May-15 19:01N 39°50' W 075°22'2 3.4
2018-May-15 18:30N 39°49' W 075°24'0 0.0
2018-May-15 18:00N 39°49' W 075°24'2 3.7
2018-May-15 17:30N 39°50' W 075°22'713.7
2018-May-15 17:00N 39°52' W 075°14'3 1.7
2018-May-15 15:23N 39°53' W 075°11'1 3.0
2018-May-15 15:00N 39°54' W 075°12'0 0.0
2018-May-15 14:30N 39°54' W 075°12'0 0.1
2018-May-15 14:00N 39°54' W 075°12'0 0.0
2018-May-15 13:31N 39°54' W 075°12'0 0.1
2018-May-15 13:00N 39°54' W 075°12'1 0.1
2018-May-14 18:49N 39°53' W 075°11'2 7.9
2018-May-14 18:30N 39°52' W 075°13'2 4.4
2018-May-14 18:01N 39°51' W 075°16'0 0.0
2018-May-14 17:30N 39°51' W 075°16'4 8.6
2018-May-14 17:00N 39°53' W 075°11'0 0.1
2018-May-14 13:55N 39°53' W 075°11'511.4
2018-May-14 13:30N 39°51' W 075°16'0 0.0
2018-May-14 13:00N 39°51' W 075°16'3 4.7
2018-May-14 12:23N 39°52' W 075°13'  
2018-May-11 20:54N 39°53' W 075°11'0 1.1
2018-May-11 20:30N 39°53' W 075°11'0 0.1
2018-May-11 17:01N 39°53' W 075°11'0 0.0
2018-May-11 17:00N 39°53' W 075°11'0 0.0
2018-May-11 15:32N 39°53' W 075°11'0 0.0
2018-May-11 15:30N 39°53' W 075°11'  
Track history (hours):
 
Tides and Currents Weather Stations Pressure Air Temp Water Temp Dewpoint Dewpoint Depression Visibility Wind Speed Wind Dir Waves Ship Positions

Mccrews

Owner: McAllister Towing & Transportation Company Inc., Staten Island, NY. More information available from US FCC via Universal Licensing System and Coast Guard Vessel Documentation Center.

Last reported at 2018-May-21 14:55 UTC. Time now 2018-May-21 14:59 UTC.
Position N 39°53' W 075°11'.

Length 13 m; draft 2 m.

Type: Pilot. MMSI: 367472490.

Date/timePositionNaut miles runAvg speedWind from/ knotsBaromVisibWave heightAir tempDewpointWater temp
2018-May-21 14:55N 39°53' W 075°11'2 3.8
2018-May-21 14:30N 39°52' W 075°13'2 0.0
2018-May-19 17:01N 39°53' W 075°11'0 0.0
2018-May-19 17:01N 39°53' W 075°11'2 4.3
2018-May-19 16:31N 39°52' W 075°13'2 1.2
2018-May-19 14:38N 39°53' W 075°11'0 3.3
2018-May-19 14:30N 39°53' W 075°11'2 3.1
2018-May-19 14:00N 39°52' W 075°13'2 3.9
2018-May-19 13:30N 39°53' W 075°11'0 0.0
2018-May-18 17:43N 39°53' W 075°11'1 2.6
2018-May-18 17:30N 39°53' W 075°11'1 0.0
2018-May-17 20:12N 39°53' W 075°11'0 2.0
2018-May-17 20:00N 39°53' W 075°10'510.6
2018-May-17 19:30N 39°58' W 075°07'3 5.6
2018-May-17 19:00N 39°55' W 075°08'3 6.7
2018-May-17 18:30N 39°53' W 075°11'2 4.1
2018-May-17 18:01N 39°55' W 075°13'2 3.5
2018-May-17 17:30N 39°56' W 075°12'2 4.6
2018-May-17 17:00N 39°54' W 075°13'2 4.5
2018-May-17 16:30N 39°52' W 075°13'2 3.7
2018-May-17 16:00N 39°54' W 075°12'3 5.6
2018-May-17 15:30N 39°56' W 075°12'0 0.2
2018-May-17 15:00N 39°56' W 075°12'0 0.0
2018-May-17 14:30N 39°56' W 075°12'0 0.0
2018-May-17 14:00N 39°56' W 075°12'1 1.4
2018-May-17 13:30N 39°56' W 075°13'1 3.0
2018-May-17 13:00N 39°54' W 075°13'2 3.9
2018-May-17 12:30N 39°53' W 075°11'0 0.2
2018-May-17 12:00N 39°53' W 075°11'0 0.0
2018-May-16 17:23N 39°53' W 075°11'2 5.3
2018-May-16 17:00N 39°52' W 075°13'0 0.6
2018-May-16 16:30N 39°52' W 075°13'2 1.0
2018-May-16 14:49N 39°53' W 075°11'0 0.1
2018-May-16 14:31N 39°53' W 075°11'0 0.0
2018-May-15 19:48N 39°53' W 075°11'3 9.9
2018-May-15 19:30N 39°52' W 075°14'713.8
2018-May-15 19:01N 39°50' W 075°22'2 3.4
2018-May-15 18:30N 39°49' W 075°24'0 0.0
2018-May-15 18:00N 39°49' W 075°24'2 3.7
2018-May-15 17:30N 39°50' W 075°22'713.7
2018-May-15 17:00N 39°52' W 075°14'3 1.7
2018-May-15 15:23N 39°53' W 075°11'1 3.0
2018-May-15 15:00N 39°54' W 075°12'0 0.0
2018-May-15 14:30N 39°54' W 075°12'0 0.1
2018-May-15 14:00N 39°54' W 075°12'0 0.0
2018-May-15 13:31N 39°54' W 075°12'0 0.1
2018-May-15 13:00N 39°54' W 075°12'1 0.1
2018-May-14 18:49N 39°53' W 075°11'2 7.9
2018-May-14 18:30N 39°52' W 075°13'2 4.4
2018-May-14 18:01N 39°51' W 075°16'0 0.0
2018-May-14 17:30N 39°51' W 075°16'4 8.6
2018-May-14 17:00N 39°53' W 075°11'0 0.1
2018-May-14 13:55N 39°53' W 075°11'511.4
2018-May-14 13:30N 39°51' W 075°16'0 0.0
2018-May-14 13:00N 39°51' W 075°16'3 4.7
2018-May-14 12:23N 39°52' W 075°13'  
2018-May-11 20:54N 39°53' W 075°11'0 1.1
2018-May-11 20:30N 39°53' W 075°11'0 0.1
2018-May-11 17:01N 39°53' W 075°11'0 0.0
2018-May-11 17:00N 39°53' W 075°11'0 0.0
2018-May-11 15:32N 39°53' W 075°11'0 0.0
2018-May-11 15:30N 39°53' W 075°11'  

Dump ship's entire track history